Time;durP1;ratioP1;P1;durP2;ratioP2;P2;SDS_P1;SDS_P2;PMS_P1;PMS_P2;Temp;Humidity;BMP_temperature;BMP_pressure;BME280_temperature;BME280_humidity;BME280_pressure;Samples;Min_cycle;Max_cycle;Signal;HPM_P1;HPM_P2
2023/04/27 00:02:02;;;;;;;3.17;1.65;;;;;;;;;;5054725;28;20114;-65
2023/04/27 00:04:28;;;;;;;6.45;1.33;;;;;;;;;;5054934;28;20496;-66
2023/04/27 00:06:55;;;;;;;1.55;1.42;;;;;;;;;;5054952;28;20029;-66
2023/04/27 00:09:21;;;;;;;2.20;1.60;;;;;;;;;;5054792;28;20017;-67
2023/04/27 00:11:48;;;;;;;3.95;1.73;;;;;;;;;;5053866;28;20390;-67
2023/04/27 00:14:14;;;;;;;3.97;1.90;;;;;;;;;;5054736;28;20031;-67
2023/04/27 00:16:41;;;;;;;2.78;1.42;;;;;;;;;;5054882;28;20021;-67
2023/04/27 00:19:07;;;;;;;2.25;1.52;;;;;;;;;;5055129;28;20028;-67
2023/04/27 00:21:34;;;;;;;1.77;1.50;;;;;;;;;;5054959;28;20055;-67
2023/04/27 00:24:00;;;;;;;3.33;1.50;;;;;;;;;;5054455;28;20033;-67
2023/04/27 00:26:27;;;;;;;2.63;1.52;;;;;;;;;;5054718;28;20027;-67
2023/04/27 00:28:53;;;;;;;5.18;1.50;;;;;;;;;;5054017;28;20037;-67
2023/04/27 00:31:20;;;;;;;2.15;1.20;;;;;;;;;;5054659;28;20017;-67
2023/04/27 00:33:46;;;;;;;3.45;1.38;;;;;;;;;;5054475;28;20023;-67
2023/04/27 00:36:12;;;;;;;3.63;1.33;;;;;;;;;;5054588;28;20029;-67
2023/04/27 00:38:38;;;;;;;2.38;1.50;;;;;;;;;;5054366;28;20048;-67
2023/04/27 00:41:06;;;;;;;2.65;1.50;;;;;;;;;;5054418;28;20032;-67
2023/04/27 00:43:32;;;;;;;2.88;1.30;;;;;;;;;;5053054;28;20043;-67
2023/04/27 00:45:59;;;;;;;3.15;0.98;;;;;;;;;;5054267;28;20025;-67
2023/04/27 00:48:26;;;;;;;1.65;1.30;;;;;;;;;;5054349;28;20051;-67
2023/04/27 00:50:52;;;;;;;3.22;1.20;;;;;;;;;;5054336;28;20027;-67
2023/04/27 00:53:19;;;;;;;2.55;1.20;;;;;;;;;;5054016;28;20036;-67
2023/04/27 00:55:46;;;;;;;1.70;1.10;;;;;;;;;;5054185;28;20024;-67
2023/04/27 00:58:13;;;;;;;2.88;1.10;;;;;;;;;;5053672;28;20033;-67
2023/04/27 01:00:39;;;;;;;3.88;1.13;;;;;;;;;;5054255;28;20500;-67
2023/04/27 01:03:07;;;;;;;1.70;1.10;;;;;;;;;;5054065;28;20033;-67
2023/04/27 01:05:34;;;;;;;2.17;1.15;;;;;;;;;;5054357;28;20024;-67
2023/04/27 01:08:00;;;;;;;1.60;1.20;;;;;;;;;;5053638;28;20497;-67
2023/04/27 01:10:27;;;;;;;1.40;1.00;;;;;;;;;;5053783;28;20035;-67
2023/04/27 01:12:53;;;;;;;2.60;0.90;;;;;;;;;;5053415;28;20036;-67
2023/04/27 01:15:20;;;;;;;2.10;1.00;;;;;;;;;;5053523;28;20027;-67
2023/04/27 01:17:47;;;;;;;4.60;1.05;;;;;;;;;;5053568;28;20035;-67
2023/04/27 01:20:14;;;;;;;1.77;0.77;;;;;;;;;;5053777;28;20047;-67
2023/04/27 01:22:40;;;;;;;5.00;0.90;;;;;;;;;;5053354;28;20045;-67
2023/04/27 01:25:07;;;;;;;1.23;0.80;;;;;;;;;;5053501;28;20432;-67
2023/04/27 01:27:33;;;;;;;1.95;0.80;;;;;;;;;;5052951;28;20021;-67
2023/04/27 01:29:59;;;;;;;1.90;0.73;;;;;;;;;;5052063;28;20045;-68
2023/04/27 01:32:26;;;;;;;2.03;0.70;;;;;;;;;;5053472;28;20485;-67
2023/04/27 01:34:52;;;;;;;3.03;0.90;;;;;;;;;;5053622;28;20029;-67
2023/04/27 01:37:18;;;;;;;0.70;0.68;;;;;;;;;;5053252;28;20031;-67
2023/04/27 01:39:45;;;;;;;5.65;2.08;;;;;;;;;;5053133;28;20032;-68
2023/04/27 01:42:11;;;;;;;1.20;1.00;;;;;;;;;;5052932;28;20033;-67
2023/04/27 01:44:37;;;;;;;1.15;1.05;;;;;;;;;;5053363;28;20037;-67
2023/04/27 01:47:04;;;;;;;2.17;1.27;;;;;;;;;;5053288;28;20023;-67
2023/04/27 01:49:30;;;;;;;3.60;1.17;;;;;;;;;;5052897;28;20081;-67
2023/04/27 01:51:56;;;;;;;3.60;1.30;;;;;;;;;;5052868;28;20058;-67
2023/04/27 01:54:23;;;;;;;3.63;1.35;;;;;;;;;;5052938;28;20029;-67
2023/04/27 01:56:49;;;;;;;1.20;1.00;;;;;;;;;;5052742;28;20476;-67
2023/04/27 01:59:15;;;;;;;2.40;1.00;;;;;;;;;;5052809;28;20028;-67
2023/04/27 02:01:42;;;;;;;4.57;1.00;;;;;;;;;;5052644;28;20381;-68
2023/04/27 02:04:08;;;;;;;1.63;1.10;;;;;;;;;;5052693;28;20041;-67
2023/04/27 02:06:35;;;;;;;3.28;1.00;;;;;;;;;;5052951;28;20037;-67
2023/04/27 02:09:01;;;;;;;1.40;0.98;;;;;;;;;;5052423;28;20082;-67
2023/04/27 02:11:27;;;;;;;4.63;1.08;;;;;;;;;;5052574;28;20508;-67
2023/04/27 02:13:54;;;;;;;1.73;1.35;;;;;;;;;;5052801;28;20035;-67
2023/04/27 02:16:20;;;;;;;1.38;1.13;;;;;;;;;;5052763;28;20025;-67
2023/04/27 02:18:47;;;;;;;3.50;1.15;;;;;;;;;;5052550;28;20023;-67
2023/04/27 02:21:14;;;;;;;2.78;1.20;;;;;;;;;;5052698;28;20032;-67
2023/04/27 02:23:41;;;;;;;2.50;1.50;;;;;;;;;;5052233;28;20037;-67
2023/04/27 02:26:07;;;;;;;2.58;1.30;;;;;;;;;;5052276;28;20408;-67
2023/04/27 02:28:33;;;;;;;4.20;1.42;;;;;;;;;;5052363;28;20086;-67
2023/04/27 02:31:00;;;;;;;1.83;1.00;;;;;;;;;;5051016;28;20041;-67
2023/04/27 02:33:26;;;;;;;3.63;1.17;;;;;;;;;;5052345;28;20041;-67
2023/04/27 02:35:52;;;;;;;2.30;1.33;;;;;;;;;;5052106;28;20021;-68
2023/04/27 02:38:19;;;;;;;2.35;1.10;;;;;;;;;;5051956;28;20027;-67
2023/04/27 02:40:45;;;;;;;2.67;1.00;;;;;;;;;;5052253;28;20028;-67
2023/04/27 02:43:11;;;;;;;1.70;1.20;;;;;;;;;;5051920;28;20390;-67
2023/04/27 02:45:38;;;;;;;1.90;0.85;;;;;;;;;;5052140;28;20090;-67
2023/04/27 02:48:04;;;;;;;2.15;1.15;;;;;;;;;;5052152;28;20027;-67
2023/04/27 02:50:30;;;;;;;2.65;1.30;;;;;;;;;;5052021;28;20033;-67
2023/04/27 02:52:58;;;;;;;2.00;1.20;;;;;;;;;;5051714;28;20031;-67
2023/04/27 02:55:24;;;;;;;4.68;1.42;;;;;;;;;;5052215;28;20031;-67
2023/04/27 02:57:51;;;;;;;4.88;1.20;;;;;;;;;;5051931;28;20027;-67
2023/04/27 03:00:17;;;;;;;2.10;1.20;;;;;;;;;;5052097;28;20134;-67
2023/04/27 03:02:44;;;;;;;1.77;1.30;;;;;;;;;;5051752;28;20058;-67
2023/04/27 03:05:10;;;;;;;2.78;1.40;;;;;;;;;;5051875;28;20505;-68
2023/04/27 03:07:36;;;;;;;2.60;1.33;;;;;;;;;;5055132;28;20032;-67
2023/04/27 03:10:03;;;;;;;4.35;1.38;;;;;;;;;;5055939;28;20474;-67
2023/04/27 03:12:29;;;;;;;2.25;1.42;;;;;;;;;;5055959;28;20025;-68
2023/04/27 03:14:55;;;;;;;2.33;1.40;;;;;;;;;;5055937;28;20021;-67
2023/04/27 03:17:22;;;;;;;2.90;1.65;;;;;;;;;;5055807;28;20025;-67
2023/04/27 03:19:48;;;;;;;2.72;1.60;;;;;;;;;;5055758;28;20067;-67
2023/04/27 03:22:14;;;;;;;1.85;1.42;;;;;;;;;;5055547;28;20036;-67
2023/04/27 03:24:41;;;;;;;2.38;1.45;;;;;;;;;;5055851;28;20029;-68
2023/04/27 03:27:08;;;;;;;1.92;1.38;;;;;;;;;;5055862;28;20039;-67
2023/04/27 03:29:34;;;;;;;3.60;1.60;;;;;;;;;;5055565;28;20056;-68
2023/04/27 03:32:00;;;;;;;2.55;1.35;;;;;;;;;;5055685;28;20028;-68
2023/04/27 03:34:27;;;;;;;2.70;1.45;;;;;;;;;;5054449;28;20074;-67
2023/04/27 03:36:53;;;;;;;1.83;1.10;;;;;;;;;;5055131;28;20035;-67
2023/04/27 03:39:19;;;;;;;2.38;1.33;;;;;;;;;;5054404;28;20036;-67
2023/04/27 03:41:46;;;;;;;3.25;1.20;;;;;;;;;;5055423;28;20401;-67
2023/04/27 03:44:12;;;;;;;2.25;1.20;;;;;;;;;;5055306;28;20039;-68
2023/04/27 03:46:38;;;;;;;2.50;1.25;;;;;;;;;;5055579;28;20025;-67
2023/04/27 03:49:05;;;;;;;2.28;1.20;;;;;;;;;;5055437;28;20490;-67
2023/04/27 03:51:32;;;;;;;3.47;1.20;;;;;;;;;;5055031;28;20028;-67
2023/04/27 03:53:58;;;;;;;1.33;1.20;;;;;;;;;;5055487;28;20045;-67
2023/04/27 03:56:25;;;;;;;3.78;1.20;;;;;;;;;;5055433;28;20074;-67
2023/04/27 03:58:52;;;;;;;2.40;1.60;;;;;;;;;;5055110;28;20424;-67
2023/04/27 04:01:18;;;;;;;3.05;1.13;;;;;;;;;;5055207;28;20029;-67
2023/04/27 04:03:46;;;;;;;2.80;1.90;;;;;;;;;;5053724;28;20055;-67
2023/04/27 04:06:12;;;;;;;1.83;1.40;;;;;;;;;;5055146;28;20029;-67
2023/04/27 04:08:39;;;;;;;6.43;1.50;;;;;;;;;;5054830;28;20047;-67
2023/04/27 04:11:05;;;;;;;3.47;1.35;;;;;;;;;;5055157;28;20021;-67
2023/04/27 04:13:31;;;;;;;2.67;1.20;;;;;;;;;;5053867;28;20039;-67
2023/04/27 04:16:05;;;;;;;3.05;1.25;;;;;;;;;;5054757;28;20375;-67
2023/04/27 04:18:31;;;;;;;3.15;1.30;;;;;;;;;;5053476;28;20401;-67
2023/04/27 04:20:58;;;;;;;2.90;1.70;;;;;;;;;;5054665;28;20029;-67
2023/04/27 04:23:24;;;;;;;3.65;1.70;;;;;;;;;;5054450;28;20033;-67
2023/04/27 04:25:51;;;;;;;6.13;2.00;;;;;;;;;;5054439;28;20392;-67
2023/04/27 04:28:17;;;;;;;4.65;1.77;;;;;;;;;;5054575;28;20021;-67
2023/04/27 04:30:44;;;;;;;3.72;2.03;;;;;;;;;;5054200;28;20524;-67
2023/04/27 04:33:11;;;;;;;6.57;1.80;;;;;;;;;;5054421;28;20383;-66
2023/04/27 04:35:37;;;;;;;5.63;1.50;;;;;;;;;;5053159;28;20055;-66
2023/04/27 04:38:04;;;;;;;2.00;1.50;;;;;;;;;;5054387;28;20031;-67
2023/04/27 04:40:31;;;;;;;4.80;1.48;;;;;;;;;;5054223;28;20024;-67
2023/04/27 04:42:57;;;;;;;2.97;1.50;;;;;;;;;;5054225;28;20032;-67
2023/04/27 04:45:23;;;;;;;3.90;1.30;;;;;;;;;;5054043;28;20021;-67
2023/04/27 04:47:50;;;;;;;4.40;1.50;;;;;;;;;;5054399;28;20037;-67
2023/04/27 04:50:16;;;;;;;3.83;1.85;;;;;;;;;;5053920;28;20073;-67
2023/04/27 04:52:43;;;;;;;4.35;1.70;;;;;;;;;;5054027;28;20029;-67
2023/04/27 04:55:09;;;;;;;4.32;1.70;;;;;;;;;;5053977;28;20017;-67
2023/04/27 04:57:36;;;;;;;4.70;1.63;;;;;;;;;;5054192;28;20031;-67
2023/04/27 05:00:05;;;;;;;3.15;1.73;;;;;;;;;;5054124;28;20021;-67
2023/04/27 05:02:31;;;;;;;7.53;3.15;;;;;;;;;;5053844;28;20037;-67
2023/04/27 05:04:58;;;;;;;10.02;3.70;;;;;;;;;;5053958;28;20029;-67
2023/04/27 05:07:24;;;;;;;8.65;3.63;;;;;;;;;;5052415;28;20039;-68
2023/04/27 05:09:51;;;;;;;8.98;2.28;;;;;;;;;;5053706;28;20028;-67
2023/04/27 05:12:17;;;;;;;7.05;1.98;;;;;;;;;;5053888;28;20378;-67
2023/04/27 05:14:43;;;;;;;3.20;1.30;;;;;;;;;;5053676;28;20032;-67
2023/04/27 05:17:10;;;;;;;2.38;1.45;;;;;;;;;;5053715;28;20025;-67
2023/04/27 05:19:36;;;;;;;3.10;1.30;;;;;;;;;;5053467;28;20024;-67
2023/04/27 05:22:02;;;;;;;2.83;1.20;;;;;;;;;;5053327;28;20024;-67
2023/04/27 05:24:28;;;;;;;4.90;1.25;;;;;;;;;;5053840;28;20037;-67
2023/04/27 05:26:55;;;;;;;1.88;1.27;;;;;;;;;;5053320;28;20559;-67
2023/04/27 05:29:21;;;;;;;5.43;1.45;;;;;;;;;;5053120;28;20049;-67
2023/04/27 05:31:48;;;;;;;2.58;1.10;;;;;;;;;;5053530;28;20021;-67
2023/04/27 05:34:14;;;;;;;4.03;1.27;;;;;;;;;;5053472;28;20093;-67
2023/04/27 05:36:41;;;;;;;2.95;1.30;;;;;;;;;;5053350;28;20027;-67
2023/04/27 05:39:07;;;;;;;2.15;1.40;;;;;;;;;;5053346;28;20123;-67
2023/04/27 05:41:34;;;;;;;4.28;1.45;;;;;;;;;;5052300;28;20055;-67
2023/04/27 05:44:00;;;;;;;3.00;1.10;;;;;;;;;;5053135;28;20037;-67
2023/04/27 05:46:26;;;;;;;2.28;1.30;;;;;;;;;;5053122;28;20035;-67
2023/04/27 05:48:52;;;;;;;3.25;1.38;;;;;;;;;;5051939;28;20032;-67
2023/04/27 05:51:19;;;;;;;3.80;1.30;;;;;;;;;;5053026;28;20021;-67
2023/04/27 05:53:45;;;;;;;2.50;1.48;;;;;;;;;;5053012;28;20018;-67
2023/04/27 05:56:12;;;;;;;3.38;1.20;;;;;;;;;;5052985;28;20039;-67
2023/04/27 05:58:38;;;;;;;0.82;0.82;;;;;;;;;;5053055;28;20025;-67
2023/04/27 06:01:05;;;;;;;2.08;1.00;;;;;;;;;;5052497;28;20481;-67
2023/04/27 06:03:31;;;;;;;1.90;0.90;;;;;;;;;;5052668;28;20033;-67
2023/04/27 06:06:00;;;;;;;2.55;1.00;;;;;;;;;;5052740;28;20021;-67
2023/04/27 06:08:27;;;;;;;4.75;1.55;;;;;;;;;;5052758;28;20031;-67
2023/04/27 06:10:53;;;;;;;5.90;1.40;;;;;;;;;;5052689;28;20024;-67
2023/04/27 06:13:20;;;;;;;2.10;1.27;;;;;;;;;;5052482;28;20028;-67
2023/04/27 06:15:46;;;;;;;5.40;1.45;;;;;;;;;;5052316;28;20027;-67
2023/04/27 06:18:13;;;;;;;6.07;1.20;;;;;;;;;;5052716;28;20037;-67
2023/04/27 06:20:40;;;;;;;1.73;1.02;;;;;;;;;;5052533;28;20013;-68
2023/04/27 06:23:07;;;;;;;2.30;1.50;;;;;;;;;;5052362;28;20452;-67
2023/04/27 06:25:34;;;;;;;3.45;1.40;;;;;;;;;;5052678;28;20025;-67
2023/04/27 06:28:00;;;;;;;2.08;1.00;;;;;;;;;;5052245;28;20383;-67
2023/04/27 06:30:27;;;;;;;5.93;1.20;;;;;;;;;;5052036;28;20048;-67
2023/04/27 06:32:53;;;;;;;2.58;0.82;;;;;;;;;;5052498;28;20032;-67
2023/04/27 06:35:20;;;;;;;5.53;1.15;;;;;;;;;;5052417;28;20032;-67
2023/04/27 06:37:46;;;;;;;2.00;1.35;;;;;;;;;;5052483;28;20028;-67
2023/04/27 06:40:13;;;;;;;2.45;1.38;;;;;;;;;;5051393;28;20021;-68
2023/04/27 06:42:39;;;;;;;6.25;1.58;;;;;;;;;;5042404;28;20029;-67
2023/04/27 06:45:06;;;;;;;3.28;1.50;;;;;;;;;;5049477;28;20021;-67
2023/04/27 06:47:32;;;;;;;2.17;1.65;;;;;;;;;;5041226;28;21666;-67
2023/04/27 06:49:59;;;;;;;5.00;1.50;;;;;;;;;;5045423;28;20082;-67
2023/04/27 06:52:25;;;;;;;2.33;1.25;;;;;;;;;;5043307;28;20031;-67
2023/04/27 06:54:52;;;;;;;1.23;1.00;;;;;;;;;;5050970;28;20470;-67
2023/04/27 06:57:18;;;;;;;1.08;0.98;;;;;;;;;;5051450;28;20029;-68
2023/04/27 06:59:44;;;;;;;3.17;1.30;;;;;;;;;;5046946;28;20014;-67
2023/04/27 07:02:11;;;;;;;3.03;1.00;;;;;;;;;;5049704;28;20032;-67
2023/04/27 07:04:37;;;;;;;3.58;1.30;;;;;;;;;;5051152;28;20561;-68
2023/04/27 07:07:03;;;;;;;1.40;1.23;;;;;;;;;;5051179;28;20021;-67
2023/04/27 07:09:30;;;;;;;6.85;1.63;;;;;;;;;;5051062;28;20025;-67
2023/04/27 07:11:57;;;;;;;7.18;1.30;;;;;;;;;;5050903;28;20389;-67
2023/04/27 07:14:23;;;;;;;3.88;1.50;;;;;;;;;;5051150;28;20016;-68
2023/04/27 07:16:50;;;;;;;4.80;1.80;;;;;;;;;;5050801;28;20780;-67
2023/04/27 07:19:16;;;;;;;8.90;2.03;;;;;;;;;;5051582;28;20017;-68
2023/04/27 07:21:42;;;;;;;8.73;1.83;;;;;;;;;;5046175;28;20095;-68
2023/04/27 07:24:09;;;;;;;3.78;1.50;;;;;;;;;;5036346;28;20041;-67
2023/04/27 07:26:36;;;;;;;2.20;1.20;;;;;;;;;;5043958;28;20477;-67
2023/04/27 07:29:02;;;;;;;2.85;1.40;;;;;;;;;;5050515;28;20086;-68
2023/04/27 07:31:28;;;;;;;2.88;1.20;;;;;;;;;;5050751;28;20029;-67
2023/04/27 07:33:55;;;;;;;5.88;1.45;;;;;;;;;;5051339;28;20033;-68
2023/04/27 07:36:21;;;;;;;8.35;1.45;;;;;;;;;;5051167;28;20371;-67
2023/04/27 07:38:48;;;;;;;1.55;1.45;;;;;;;;;;5049272;28;20504;-68
2023/04/27 07:41:15;;;;;;;2.08;1.40;;;;;;;;;;5051177;28;20017;-68
2023/04/27 07:43:42;;;;;;;2.15;1.30;;;;;;;;;;5051236;28;20037;-67
2023/04/27 07:46:08;;;;;;;2.05;1.42;;;;;;;;;;5051171;28;20016;-67
2023/04/27 07:48:35;;;;;;;1.98;1.45;;;;;;;;;;5051010;28;20025;-68
2023/04/27 07:51:01;;;;;;;2.67;1.70;;;;;;;;;;5050600;28;20035;-67
2023/04/27 07:53:28;;;;;;;1.63;1.02;;;;;;;;;;5053039;28;20040;-68
2023/04/27 07:55:54;;;;;;;2.47;1.38;;;;;;;;;;5052450;28;20027;-68
2023/04/27 07:58:20;;;;;;;4.13;1.35;;;;;;;;;;5047349;28;20040;-68
2023/04/27 08:00:47;;;;;;;4.43;1.20;;;;;;;;;;5045545;28;20033;-68
2023/04/27 08:03:13;;;;;;;2.30;1.48;;;;;;;;;;5040322;28;20040;-68
2023/04/27 08:05:39;;;;;;;4.93;1.50;;;;;;;;;;5054521;28;20478;-68
2023/04/27 08:08:06;;;;;;;5.90;1.60;;;;;;;;;;5054419;28;20029;-68
2023/04/27 08:10:32;;;;;;;4.55;1.05;;;;;;;;;;5052940;28;20345;-68
2023/04/27 08:12:58;;;;;;;3.83;1.10;;;;;;;;;;5054906;28;20375;-68
2023/04/27 08:15:24;;;;;;;2.38;1.10;;;;;;;;;;5053698;28;20077;-68
2023/04/27 08:17:51;;;;;;;3.50;1.15;;;;;;;;;;5053430;28;20037;-68
2023/04/27 08:20:17;;;;;;;2.42;1.27;;;;;;;;;;5053488;28;20033;-68
2023/04/27 08:22:43;;;;;;;4.22;1.10;;;;;;;;;;5053110;28;20036;-68
2023/04/27 08:25:10;;;;;;;1.20;1.00;;;;;;;;;;5053410;28;20033;-68
2023/04/27 08:27:37;;;;;;;1.70;1.00;;;;;;;;;;5053351;28;20310;-68
2023/04/27 08:30:04;;;;;;;1.75;1.30;;;;;;;;;;5045654;28;20060;-68
2023/04/27 08:32:30;;;;;;;3.58;1.20;;;;;;;;;;5038467;28;20026;-68
2023/04/27 08:34:56;;;;;;;1.45;1.30;;;;;;;;;;5043916;28;20026;-68
2023/04/27 08:37:22;;;;;;;2.25;1.00;;;;;;;;;;5043575;28;20025;-68
2023/04/27 08:39:49;;;;;;;2.70;1.23;;;;;;;;;;5036941;28;20035;-68
2023/04/27 08:42:15;;;;;;;1.10;1.00;;;;;;;;;;5034017;28;20040;-67
2023/04/27 08:44:42;;;;;;;1.98;1.17;;;;;;;;;;5038990;28;20502;-67
2023/04/27 08:47:09;;;;;;;2.67;0.90;;;;;;;;;;5049155;28;20065;-67
2023/04/27 08:49:37;;;;;;;1.00;0.93;;;;;;;;;;5054508;28;20034;-68
2023/04/27 08:52:04;;;;;;;2.40;1.30;;;;;;;;;;5051621;28;20478;-67
2023/04/27 08:54:30;;;;;;;3.65;1.52;;;;;;;;;;5052187;28;20025;-68
2023/04/27 08:56:56;;;;;;;1.63;1.02;;;;;;;;;;5052421;28;20028;-67
2023/04/27 08:59:23;;;;;;;2.75;1.05;;;;;;;;;;5051697;28;20025;-68
2023/04/27 09:01:49;;;;;;;1.63;0.85;;;;;;;;;;5053043;28;20021;-67
2023/04/27 09:04:17;;;;;;;3.30;1.38;;;;;;;;;;5052008;28;20059;-68
2023/04/27 09:06:43;;;;;;;1.75;1.20;;;;;;;;;;5052546;28;20021;-68
2023/04/27 09:09:10;;;;;;;1.52;1.15;;;;;;;;;;5052703;28;20021;-68
2023/04/27 09:11:37;;;;;;;2.67;1.10;;;;;;;;;;5052506;28;20119;-68
2023/04/27 09:14:15;;;;;;;1.33;1.10;;;;;;;;;;5049043;28;20021;-68
2023/04/27 09:16:42;;;;;;;1.20;0.90;;;;;;;;;;5041034;28;20029;-67
2023/04/27 09:19:08;;;;;;;3.30;1.20;;;;;;;;;;5038060;28;20073;-67
2023/04/27 09:21:35;;;;;;;1.98;1.10;;;;;;;;;;5031953;28;20026;-68
2023/04/27 09:24:11;;;;;;;4.43;1.20;;;;;;;;;;5040433;28;20033;-68
2023/04/27 09:26:38;;;;;;;1.50;1.40;;;;;;;;;;5052432;28;20017;-68
2023/04/27 09:29:04;;;;;;;5.03;1.30;;;;;;;;;;5051720;28;20041;-68
2023/04/27 09:31:31;;;;;;;4.10;1.13;;;;;;;;;;5052256;28;20486;-68
2023/04/27 09:33:58;;;;;;;1.80;1.10;;;;;;;;;;5052126;28;20031;-68
2023/04/27 09:36:25;;;;;;;2.05;1.30;;;;;;;;;;5052808;28;20014;-68
2023/04/27 09:38:51;;;;;;;4.20;1.73;;;;;;;;;;5052122;28;20029;-68
2023/04/27 09:41:18;;;;;;;1.75;1.08;;;;;;;;;;5045957;28;20025;-68
2023/04/27 09:43:45;;;;;;;1.90;1.02;;;;;;;;;;5042336;28;20036;-68
2023/04/27 09:46:14;;;;;;;2.05;1.40;;;;;;;;;;5050872;28;20389;-68
2023/04/27 09:48:41;;;;;;;3.47;0.98;;;;;;;;;;5051918;28;20405;-68
2023/04/27 09:51:07;;;;;;;4.30;1.50;;;;;;;;;;5052134;28;20021;-67
2023/04/27 09:53:40;;;;;;;4.55;1.60;;;;;;;;;;5051555;28;20039;-68
2023/04/27 09:56:07;;;;;;;3.70;1.67;;;;;;;;;;5052037;28;20020;-68
2023/04/27 09:58:52;;;;;;;1.88;1.30;;;;;;;;;;5051556;28;20025;-68
2023/04/27 10:01:24;;;;;;;4.53;1.35;;;;;;;;;;5051463;28;20025;-68
2023/04/27 10:03:58;;;;;;;2.22;1.00;;;;;;;;;;5051186;28;20386;-68
2023/04/27 10:06:33;;;;;;;1.67;1.20;;;;;;;;;;5051860;28;20033;-67
2023/04/27 10:09:04;;;;;;;3.22;1.73;;;;;;;;;;5049917;28;20044;-68
2023/04/27 10:11:43;;;;;;;2.05;1.40;;;;;;;;;;5051593;28;20546;-67
2023/04/27 10:14:16;;;;;;;3.38;1.67;;;;;;;;;;5051368;28;20025;-68
2023/04/27 10:16:45;;;;;;;2.25;1.42;;;;;;;;;;5051310;28;20027;-68
2023/04/27 10:19:11;;;;;;;2.60;1.70;;;;;;;;;;5051324;28;20031;-68
2023/04/27 10:21:38;;;;;;;2.28;1.50;;;;;;;;;;5051425;28;20394;-68
2023/04/27 10:24:08;;;;;;;2.53;1.55;;;;;;;;;;5051111;28;20510;-67
2023/04/27 10:26:35;;;;;;;3.63;1.73;;;;;;;;;;5051221;28;20379;-68
2023/04/27 10:29:08;;;;;;;3.30;1.88;;;;;;;;;;5051580;28;20035;-68
2023/04/27 10:31:34;;;;;;;2.70;1.50;;;;;;;;;;5051650;28;20059;-68
2023/04/27 10:34:07;;;;;;;3.00;1.73;;;;;;;;;;5051050;28;20017;-68
2023/04/27 10:36:35;;;;;;;3.40;1.88;;;;;;;;;;5051068;28;20029;-67
2023/04/27 10:39:05;;;;;;;1.40;1.10;;;;;;;;;;5051197;28;20018;-68
2023/04/27 10:41:35;;;;;;;1.70;1.20;;;;;;;;;;5051192;28;20028;-67
2023/04/27 10:44:15;;;;;;;3.15;1.50;;;;;;;;;;5051224;28;20393;-68
2023/04/27 10:46:51;;;;;;;3.05;1.50;;;;;;;;;;5051352;28;20025;-69
2023/04/27 10:49:17;;;;;;;3.65;1.90;;;;;;;;;;5051310;28;20051;-68
2023/04/27 10:51:44;;;;;;;4.45;1.90;;;;;;;;;;5050992;28;20036;-68
2023/04/27 10:54:11;;;;;;;5.88;2.30;;;;;;;;;;5050774;28;20021;-68
2023/04/27 10:56:37;;;;;;;3.92;2.08;;;;;;;;;;5050964;28;20025;-68
2023/04/27 10:59:05;;;;;;;3.75;1.60;;;;;;;;;;5051076;28;20029;-68
2023/04/27 11:01:31;;;;;;;4.40;1.73;;;;;;;;;;5050843;28;20025;-68
2023/04/27 11:04:00;;;;;;;3.42;1.60;;;;;;;;;;5050675;28;20391;-68
2023/04/27 11:06:33;;;;;;;2.58;1.40;;;;;;;;;;5050931;28;20033;-68
2023/04/27 11:09:01;;;;;;;3.78;1.80;;;;;;;;;;5050889;28;20033;-68
2023/04/27 11:11:27;;;;;;;1.90;1.30;;;;;;;;;;5051229;28;20029;-68
2023/04/27 11:13:57;;;;;;;2.25;1.50;;;;;;;;;;5050895;28;20029;-68
2023/04/27 11:16:23;;;;;;;3.28;1.92;;;;;;;;;;5050914;28;20029;-68
2023/04/27 11:18:50;;;;;;;5.38;2.42;;;;;;;;;;5050839;28;20037;-68
2023/04/27 11:21:19;;;;;;;4.32;2.30;;;;;;;;;;5050460;28;20393;-68
2023/04/27 11:23:45;;;;;;;4.30;2.00;;;;;;;;;;5051028;28;20041;-68
2023/04/27 11:26:20;;;;;;;4.50;1.48;;;;;;;;;;5050781;28;20021;-68
2023/04/27 11:29:04;;;;;;;3.08;1.40;;;;;;;;;;5053795;28;20029;-68
2023/04/27 11:31:42;;;;;;;2.75;1.63;;;;;;;;;;5054931;28;20040;-68
2023/04/27 11:34:08;;;;;;;6.90;1.52;;;;;;;;;;5054695;28;20040;-68
2023/04/27 11:36:35;;;;;;;2.03;1.48;;;;;;;;;;5054419;28;20668;-68
2023/04/27 11:39:03;;;;;;;1.48;1.17;;;;;;;;;;5054682;28;20024;-68
2023/04/27 11:41:36;;;;;;;1.80;1.10;;;;;;;;;;5054604;28;20036;-68
2023/04/27 11:44:07;;;;;;;3.90;1.27;;;;;;;;;;5054261;28;20028;-68
2023/04/27 11:46:35;;;;;;;1.80;1.27;;;;;;;;;;5054298;28;20033;-68
2023/04/27 11:49:05;;;;;;;3.20;1.50;;;;;;;;;;5054209;28;20029;-68
2023/04/27 11:51:32;;;;;;;3.53;1.77;;;;;;;;;;5054287;28;20035;-68
2023/04/27 11:54:07;;;;;;;2.35;1.60;;;;;;;;;;5054301;28;20028;-68
2023/04/27 11:56:37;;;;;;;2.92;1.83;;;;;;;;;;5051959;28;20023;-68
2023/04/27 11:59:04;;;;;;;4.78;2.00;;;;;;;;;;5053957;28;20367;-68
2023/04/27 12:01:34;;;;;;;12.90;3.03;;;;;;;;;;5050724;28;20382;-69
2023/04/27 12:04:01;;;;;;;4.53;3.00;;;;;;;;;;5047157;28;20041;-68
2023/04/27 12:06:28;;;;;;;5.55;3.38;;;;;;;;;;5048410;28;20017;-68
2023/04/27 12:08:55;;;;;;;4.80;3.65;;;;;;;;;;5048267;28;20021;-68
2023/04/27 12:11:22;;;;;;;5.32;3.53;;;;;;;;;;5046696;28;20102;-68
2023/04/27 12:13:49;;;;;;;2.42;1.90;;;;;;;;;;5043837;28;20039;-68
2023/04/27 12:16:15;;;;;;;1.63;1.33;;;;;;;;;;5053235;28;20047;-68
2023/04/27 12:18:41;;;;;;;2.80;1.40;;;;;;;;;;5051739;28;20039;-68
2023/04/27 12:21:09;;;;;;;1.80;1.20;;;;;;;;;;5053647;28;20036;-67
2023/04/27 12:23:36;;;;;;;1.70;1.20;;;;;;;;;;5052325;28;20404;-68
2023/04/27 12:26:02;;;;;;;0.93;0.90;;;;;;;;;;5053508;28;20024;-68
2023/04/27 12:28:28;;;;;;;0.75;0.65;;;;;;;;;;5051509;28;20028;-68
2023/04/27 12:30:55;;;;;;;1.08;0.70;;;;;;;;;;5052594;28;20039;-68
2023/04/27 12:33:21;;;;;;;0.82;0.60;;;;;;;;;;5051885;28;20074;-68
2023/04/27 12:35:47;;;;;;;1.58;0.60;;;;;;;;;;5053102;28;20029;-68
2023/04/27 12:38:14;;;;;;;1.15;0.60;;;;;;;;;;5052439;28;20035;-67
2023/04/27 12:40:40;;;;;;;0.50;0.50;;;;;;;;;;5049772;28;20029;-68
2023/04/27 12:43:08;;;;;;;0.65;0.57;;;;;;;;;;5046301;28;20082;-68
2023/04/27 12:45:35;;;;;;;0.73;0.50;;;;;;;;;;5052509;28;20015;-68
2023/04/27 12:48:01;;;;;;;2.80;0.60;;;;;;;;;;5052425;28;20033;-68
2023/04/27 12:50:27;;;;;;;0.95;0.52;;;;;;;;;;5052573;28;20024;-68
2023/04/27 12:52:54;;;;;;;0.60;0.60;;;;;;;;;;5052760;28;20027;-68
2023/04/27 12:55:20;;;;;;;1.20;0.60;;;;;;;;;;5052445;28;20090;-67
2023/04/27 12:57:46;;;;;;;0.85;0.60;;;;;;;;;;5052073;28;20090;-67
2023/04/27 13:00:14;;;;;;;1.38;0.60;;;;;;;;;;5050149;28;20025;-68
2023/04/27 13:02:42;;;;;;;1.33;0.68;;;;;;;;;;5052218;28;20040;-68
2023/04/27 13:05:08;;;;;;;1.35;0.80;;;;;;;;;;5052548;28;20043;-68
2023/04/27 13:07:34;;;;;;;2.63;0.47;;;;;;;;;;5052316;28;20029;-67
2023/04/27 13:10:02;;;;;;;0.57;0.30;;;;;;;;;;5052073;28;20029;-68
2023/04/27 13:12:28;;;;;;;1.70;0.38;;;;;;;;;;5052368;28;20393;-68
2023/04/27 13:14:55;;;;;;;0.50;0.40;;;;;;;;;;5052090;28;20025;-68
2023/04/27 13:17:21;;;;;;;0.80;0.40;;;;;;;;;;5049677;28;20020;-68
2023/04/27 13:19:47;;;;;;;0.90;0.50;;;;;;;;;;5045588;28;20035;-68
2023/04/27 13:22:13;;;;;;;0.82;0.50;;;;;;;;;;5040198;28;20028;-68
2023/04/27 13:24:41;;;;;;;0.75;0.40;;;;;;;;;;5033672;28;20410;-67
2023/04/27 13:27:07;;;;;;;0.38;0.25;;;;;;;;;;5042578;28;20037;-68
2023/04/27 13:29:34;;;;;;;1.83;0.47;;;;;;;;;;5034359;28;20052;-68
2023/04/27 13:32:00;;;;;;;1.10;0.50;;;;;;;;;;5032034;28;20025;-68
2023/04/27 13:34:27;;;;;;;2.63;0.40;;;;;;;;;;5033417;28;20524;-68
2023/04/27 13:36:53;;;;;;;1.00;0.40;;;;;;;;;;5061954;28;20037;-68
2023/04/27 13:39:20;;;;;;;0.55;0.40;;;;;;;;;;5042603;28;20067;-68
2023/04/27 13:41:47;;;;;;;0.82;0.40;;;;;;;;;;5032383;28;20102;-68
2023/04/27 13:44:13;;;;;;;1.05;0.40;;;;;;;;;;5046724;28;20082;-68
2023/04/27 13:46:40;;;;;;;0.43;0.40;;;;;;;;;;5051803;28;20086;-68
2023/04/27 13:49:06;;;;;;;0.55;0.50;;;;;;;;;;5051997;28;20036;-68
2023/04/27 13:51:33;;;;;;;0.80;0.40;;;;;;;;;;5051781;28;20027;-68
2023/04/27 13:53:59;;;;;;;1.25;0.40;;;;;;;;;;5051654;28;20043;-68
2023/04/27 13:56:26;;;;;;;0.57;0.30;;;;;;;;;;5051819;28;20013;-68
2023/04/27 13:58:52;;;;;;;0.52;0.40;;;;;;;;;;5051740;28;20103;-68
2023/04/27 14:01:18;;;;;;;0.40;0.30;;;;;;;;;;5051397;28;20504;-68
2023/04/27 14:03:45;;;;;;;0.85;0.40;;;;;;;;;;5051742;28;20033;-68
2023/04/27 14:06:11;;;;;;;0.35;0.30;;;;;;;;;;5051852;28;20031;-68
2023/04/27 14:08:37;;;;;;;0.82;0.45;;;;;;;;;;5051532;28;20021;-68
2023/04/27 14:11:05;;;;;;;0.45;0.32;;;;;;;;;;5052119;28;20017;-68
2023/04/27 14:13:31;;;;;;;1.08;0.40;;;;;;;;;;5051832;28;20021;-68
2023/04/27 14:15:58;;;;;;;0.32;0.32;;;;;;;;;;5051209;28;20028;-68
2023/04/27 14:18:24;;;;;;;1.33;0.40;;;;;;;;;;5051547;28;20029;-68
2023/04/27 14:20:53;;;;;;;1.20;0.52;;;;;;;;;;5051169;28;20539;-68
2023/04/27 14:23:20;;;;;;;0.45;0.35;;;;;;;;;;5051509;28;20046;-68
2023/04/27 14:25:47;;;;;;;0.73;0.30;;;;;;;;;;5051497;28;20017;-68
2023/04/27 14:28:13;;;;;;;0.50;0.40;;;;;;;;;;5051312;28;20021;-68
2023/04/27 14:30:40;;;;;;;1.02;0.52;;;;;;;;;;5051052;28;20044;-68
2023/04/27 14:33:06;;;;;;;0.57;0.40;;;;;;;;;;5051225;28;20036;-68
2023/04/27 14:35:36;;;;;;;0.60;0.40;;;;;;;;;;5051222;28;20032;-68
2023/04/27 14:38:03;;;;;;;1.65;0.50;;;;;;;;;;5051261;28;20029;-68
2023/04/27 14:40:30;;;;;;;0.60;0.30;;;;;;;;;;5051049;28;20482;-68
2023/04/27 14:42:57;;;;;;;0.40;0.30;;;;;;;;;;5051085;28;20048;-68